createdAt,value
2022-11-26T00:00:47.111Z,34.87
2022-11-26T00:03:29.890Z,34.47
2022-11-26T00:05:57.426Z,33.30
2022-11-26T00:08:34.711Z,33.00
2022-11-26T00:11:01.976Z,33.73
2022-11-26T00:13:30.301Z,33.30
2022-11-26T00:15:56.988Z,32.93
2022-11-26T00:18:25.806Z,33.93
2022-11-26T00:20:58.972Z,32.90
2022-11-26T00:23:27.695Z,33.33
2022-11-26T00:25:57.527Z,31.90
2022-11-26T00:28:23.674Z,32.77
2022-11-26T00:30:50.183Z,33.57
2022-11-26T00:33:16.204Z,32.07
2022-11-26T00:35:42.644Z,32.00
2022-11-26T00:38:15.968Z,31.47
2022-11-26T00:40:42.493Z,31.67
2022-11-26T00:43:13.167Z,33.07
2022-11-26T00:45:39.913Z,31.17
2022-11-26T00:48:06.223Z,30.60
2022-11-26T00:50:38.210Z,31.47
2022-11-26T00:53:05.704Z,32.47
2022-11-26T00:55:44.393Z,31.00
2022-11-26T00:58:26.288Z,31.60
2022-11-26T01:00:55.004Z,32.90
2022-11-26T01:03:21.498Z,31.80
2022-11-26T01:05:56.659Z,33.17
2022-11-26T01:08:40.957Z,32.43
2022-11-26T01:11:11.934Z,31.63
2022-11-26T01:13:38.127Z,33.17
2022-11-26T01:16:15.573Z,30.60
2022-11-26T01:18:41.720Z,31.93
2022-11-26T01:21:11.272Z,32.20
2022-11-26T01:23:38.369Z,31.70
2022-11-26T01:26:06.679Z,33.43
2022-11-26T01:28:32.898Z,31.53
2022-11-26T01:30:59.245Z,33.07
2022-11-26T01:33:25.335Z,32.77
2022-11-26T01:35:51.707Z,30.00
2022-11-26T01:38:17.917Z,33.33
2022-11-26T01:41:00.257Z,33.60
2022-11-26T01:43:31.984Z,35.83
2022-11-26T01:45:58.571Z,37.27
2022-11-26T01:48:33.391Z,38.23
2022-11-26T01:51:08.097Z,38.97
2022-11-26T01:54:00.376Z,39.30
2022-11-26T01:56:41.473Z,38.50
2022-11-26T01:59:18.439Z,38.40
2022-11-26T02:01:45.191Z,36.40
2022-11-26T02:04:16.627Z,36.37
2022-11-26T02:06:46.046Z,39.23
2022-11-26T02:09:12.291Z,37.33
2022-11-26T02:11:39.392Z,37.17
2022-11-26T02:14:09.824Z,36.83
2022-11-26T02:16:39.142Z,36.47
2022-11-26T02:19:21.646Z,35.10
2022-11-26T02:21:55.552Z,35.73
2022-11-26T02:24:45.277Z,35.87
2022-11-26T02:27:17.957Z,34.17
2022-11-26T02:29:56.230Z,31.93
2022-11-26T02:32:29.391Z,32.00
2022-11-26T02:35:03.901Z,32.57
2022-11-26T02:37:47.695Z,33.57
2022-11-26T02:40:14.603Z,32.03
2022-11-26T02:42:41.573Z,32.77
2022-11-26T02:45:13.725Z,33.60
2022-11-26T02:47:44.160Z,31.90
2022-11-26T02:50:18.179Z,32.00
2022-11-26T02:52:48.292Z,31.17
2022-11-26T02:55:16.006Z,31.27
2022-11-26T02:57:47.054Z,31.00
2022-11-26T03:00:14.712Z,32.67
2022-11-26T03:02:53.707Z,31.57
2022-11-26T03:05:20.393Z,32.50
2022-11-26T03:07:50.794Z,33.83
2022-11-26T03:10:19.528Z,33.53
2022-11-26T03:12:46.815Z,32.20
2022-11-26T03:15:13.096Z,32.50
2022-11-26T03:17:39.517Z,32.20
2022-11-26T03:20:06.517Z,31.27
2022-11-26T03:22:33.100Z,32.00
2022-11-26T03:24:59.249Z,33.47
2022-11-26T03:27:25.656Z,32.63
2022-11-26T03:29:51.779Z,34.40
2022-11-26T03:32:18.193Z,33.40
2022-11-26T03:34:44.260Z,31.97
2022-11-26T03:37:10.817Z,34.40
2022-11-26T03:39:36.947Z,33.60
2022-11-26T03:42:03.513Z,32.03
2022-11-26T03:44:29.655Z,34.43
2022-11-26T03:46:56.001Z,37.57
2022-11-26T03:49:22.069Z,33.17
2022-11-26T03:51:48.466Z,35.83
2022-11-26T03:54:14.752Z,35.67
2022-11-26T03:56:41.195Z,35.40
2022-11-26T03:59:07.356Z,33.67
2022-11-26T04:01:33.873Z,34.43
2022-11-26T04:04:00.092Z,33.20
2022-11-26T04:06:26.454Z,33.57
2022-11-26T04:08:52.652Z,33.90
2022-11-26T04:11:19.122Z,33.63
2022-11-26T04:13:45.258Z,34.10
2022-11-26T04:16:11.812Z,33.00
2022-11-26T04:18:37.992Z,34.93
2022-11-26T04:21:07.470Z,33.13
2022-11-26T04:23:34.737Z,32.83
2022-11-26T04:26:01.376Z,33.93
2022-11-26T04:28:28.703Z,32.23
2022-11-26T04:30:55.082Z,31.70
2022-11-26T04:33:21.265Z,37.30
2022-11-26T04:35:49.699Z,45.73
2022-11-26T04:38:15.861Z,34.70
2022-11-26T04:40:42.670Z,35.70
2022-11-26T04:43:09.017Z,34.90
2022-11-26T04:45:35.411Z,39.20
2022-11-26T04:48:01.671Z,38.13
2022-11-26T04:50:28.164Z,36.97
2022-11-26T04:52:54.256Z,44.27
2022-11-26T04:55:20.660Z,66.07
2022-11-26T04:57:47.864Z,107.23
2022-11-26T05:00:15.995Z,146.63
2022-11-26T05:02:42.428Z,68.87
2022-11-26T05:05:09.218Z,48.57
2022-11-26T05:07:35.609Z,39.53
2022-11-26T05:10:05.698Z,38.27
2022-11-26T05:12:31.953Z,36.13
2022-11-26T05:14:58.359Z,35.00
2022-11-26T05:17:24.474Z,35.67
2022-11-26T05:19:50.870Z,36.20
2022-11-26T05:22:17.052Z,33.20
2022-11-26T05:24:43.564Z,32.93
2022-11-26T05:27:09.807Z,33.17
2022-11-26T05:29:36.368Z,32.90
2022-11-26T05:32:02.686Z,30.27
2022-11-26T05:34:29.525Z,29.53
2022-11-26T05:36:55.865Z,28.40
2022-11-26T05:39:22.423Z,28.70
2022-11-26T05:41:48.606Z,30.77
2022-11-26T05:44:15.203Z,59.97
2022-11-26T05:46:42.516Z,49.47
2022-11-26T05:49:09.312Z,41.80
2022-11-26T05:51:35.523Z,71.27
2022-11-26T05:54:02.647Z,67.07
2022-11-26T05:56:29.153Z,56.70
2022-11-26T05:58:55.752Z,48.00
2022-11-26T06:01:22.183Z,42.27
2022-11-26T06:03:48.846Z,36.67
2022-11-26T06:06:15.162Z,53.23
2022-11-26T06:08:41.646Z,32.53
2022-11-26T06:11:11.706Z,28.00
2022-11-26T06:13:39.008Z,26.93
2022-11-26T06:16:05.667Z,26.40
2022-11-26T06:18:32.094Z,29.70
2022-11-26T06:21:03.120Z,24.70
2022-11-26T06:23:31.375Z,25.57
2022-11-26T06:25:57.657Z,26.10
2022-11-26T06:28:24.118Z,24.50
2022-11-26T06:30:50.525Z,25.13
2022-11-26T06:33:17.206Z,25.07
2022-11-26T06:35:43.527Z,28.77
2022-11-26T06:38:10.329Z,27.97
2022-11-26T06:40:36.754Z,28.97
2022-11-26T06:43:03.280Z,29.77
2022-11-26T06:45:30.247Z,36.57
2022-11-26T06:47:57.106Z,37.83
2022-11-26T06:50:23.233Z,48.73
2022-11-26T06:52:53.791Z,30.97
2022-11-26T06:55:21.204Z,70.03
2022-11-26T06:57:51.837Z,87.83
2022-11-26T07:00:18.522Z,116.60
2022-11-26T07:02:45.982Z,98.67
2022-11-26T07:05:13.114Z,70.47
2022-11-26T07:07:40.044Z,35.80
2022-11-26T07:10:07.565Z,39.83
2022-11-26T07:12:34.065Z,40.40
2022-11-26T07:15:00.603Z,46.87
2022-11-26T07:17:28.127Z,66.33
2022-11-26T07:19:55.160Z,39.10
2022-11-26T07:22:22.215Z,48.00
2022-11-26T07:24:48.662Z,56.80
2022-11-26T07:27:15.113Z,36.90
2022-11-26T07:29:41.840Z,28.03
2022-11-26T07:32:08.525Z,27.53
2022-11-26T07:34:35.196Z,25.83
2022-11-26T07:37:01.849Z,24.17
2022-11-26T07:39:28.239Z,26.50
2022-11-26T07:41:54.974Z,25.60
2022-11-26T07:44:21.371Z,25.03
2022-11-26T07:46:47.996Z,25.33
2022-11-26T07:49:14.213Z,25.97
2022-11-26T07:51:41.370Z,27.43
2022-11-26T07:54:07.889Z,29.87
2022-11-26T07:56:35.114Z,27.47
2022-11-26T07:59:01.870Z,30.53
2022-11-26T08:01:29.142Z,32.00
2022-11-26T08:03:56.688Z,30.83
2022-11-26T08:06:28.193Z,28.00
2022-11-26T08:08:55.251Z,28.77
2022-11-26T08:11:24.487Z,26.77
2022-11-26T08:13:59.693Z,33.30
2022-11-26T08:16:29.119Z,32.63
2022-11-26T08:18:57.884Z,29.60
2022-11-26T08:21:25.469Z,37.03
2022-11-26T08:23:53.390Z,32.87
2022-11-26T08:26:25.103Z,31.37
2022-11-26T08:28:58.233Z,45.03
2022-11-26T08:31:26.790Z,30.90
2022-11-26T08:33:56.777Z,29.17
2022-11-26T08:36:23.429Z,31.13
2022-11-26T08:38:50.079Z,30.67
2022-11-26T08:41:16.863Z,29.10
2022-11-26T08:46:30.612Z,29.93
2022-11-26T08:48:57.730Z,28.80
2022-11-26T08:51:24.696Z,33.23
2022-11-26T08:53:51.207Z,31.90
2022-11-26T08:56:17.976Z,34.37
2022-11-26T08:58:45.107Z,29.13
2022-11-26T09:01:13.948Z,28.03
2022-11-26T09:03:40.309Z,31.83
2022-11-26T09:06:08.017Z,33.83
2022-11-26T09:08:55.466Z,31.80
2022-11-26T09:11:22.993Z,28.80
2022-11-26T09:13:49.164Z,28.53
2022-11-26T09:16:19.943Z,28.77
2022-11-26T09:18:50.651Z,30.23
2022-11-26T09:21:18.794Z,29.77
2022-11-26T09:23:46.432Z,29.93
2022-11-26T09:26:13.357Z,27.47
2022-11-26T09:28:42.075Z,47.00
2022-11-26T09:31:16.976Z,50.67
2022-11-26T09:33:55.135Z,34.03
2022-11-26T09:36:22.076Z,32.60
2022-11-26T09:38:48.269Z,31.80
2022-11-26T09:41:33.243Z,31.57
2022-11-26T09:44:18.188Z,30.87
2022-11-26T09:47:13.589Z,29.50
2022-11-26T09:50:16.823Z,28.10
2022-11-26T09:53:03.583Z,29.60
2022-11-26T09:55:53.525Z,29.57
2022-11-26T09:58:26.989Z,28.97
2022-11-26T10:00:59.388Z,28.90
2022-11-26T10:03:37.175Z,28.93
2022-11-26T10:06:29.247Z,31.37
2022-11-26T10:09:16.257Z,30.83
2022-11-26T10:12:24.920Z,28.63
2022-11-26T10:15:19.850Z,29.63
2022-11-26T10:18:17.379Z,30.57
2022-11-26T10:21:02.075Z,31.57
2022-11-26T10:23:44.815Z,30.43
2022-11-26T10:26:23.296Z,30.10
2022-11-26T10:28:59.048Z,29.70
2022-11-26T10:31:30.480Z,31.57
2022-11-26T10:34:04.389Z,31.67
2022-11-26T10:36:38.641Z,29.10
2022-11-26T10:39:06.644Z,27.63
2022-11-26T10:41:35.283Z,27.50
2022-11-26T10:44:34.055Z,25.73
2022-11-26T10:47:20.979Z,25.57
2022-11-26T10:49:48.757Z,24.20
2022-11-26T10:52:20.277Z,26.37
2022-11-26T10:54:46.689Z,21.70
2022-11-26T10:57:21.179Z,26.10
2022-11-26T10:59:51.343Z,21.57
2022-11-26T11:02:38.765Z,22.57
2022-11-26T11:05:08.301Z,24.13
2022-11-26T11:07:37.955Z,21.03
2022-11-26T11:10:07.719Z,23.07
2022-11-26T11:12:35.721Z,24.47
2022-11-26T11:15:17.260Z,21.50
2022-11-26T11:17:45.762Z,25.33
2022-11-26T11:20:15.249Z,21.83
2022-11-26T11:22:43.790Z,21.47
2022-11-26T11:25:24.599Z,23.67
2022-11-26T11:27:53.810Z,20.63
2022-11-26T11:30:24.846Z,20.77
2022-11-26T11:32:56.644Z,20.67
2022-11-26T11:35:30.342Z,21.70
2022-11-26T11:37:58.092Z,21.70
2022-11-26T11:40:28.413Z,21.37
2022-11-26T11:43:06.354Z,19.80
2022-11-26T11:45:34.196Z,20.27
2022-11-26T11:48:15.640Z,22.83
2022-11-26T11:50:49.477Z,26.97
2022-11-26T11:53:32.586Z,28.87
2022-11-26T11:56:16.751Z,27.07
2022-11-26T11:59:07.971Z,28.37
2022-11-26T12:02:00.168Z,27.93
2022-11-26T12:04:48.674Z,27.33
2022-11-26T12:07:51.943Z,27.20
2022-11-26T12:10:35.765Z,27.60
2022-11-26T12:13:06.381Z,26.53
2022-11-26T12:15:54.647Z,29.27
2022-11-26T12:18:46.065Z,35.97
2022-11-26T12:21:15.716Z,31.47
2022-11-26T12:23:56.148Z,30.30
2022-11-26T12:26:42.054Z,43.03
2022-11-26T12:29:41.213Z,33.23
2022-11-26T12:32:16.641Z,36.53
2022-11-26T12:34:52.086Z,38.93
2022-11-26T12:37:23.495Z,30.23
2022-11-26T12:40:07.338Z,31.10
2022-11-26T12:42:48.743Z,32.47
2022-11-26T12:45:38.268Z,42.13
2022-11-26T12:48:41.707Z,32.20
2022-11-26T12:51:19.784Z,23.47
2022-11-26T12:54:04.589Z,21.97
2022-11-26T12:56:33.989Z,21.33
2022-11-26T12:59:17.566Z,19.97
2022-11-26T13:01:44.008Z,21.27
2022-11-26T13:07:03.265Z,21.20
2022-11-26T13:10:00.406Z,22.17
2022-11-26T13:12:41.752Z,20.87
2022-11-26T13:15:57.784Z,28.23
2022-11-26T13:18:38.120Z,47.07
2022-11-26T13:21:38.564Z,38.03
2022-11-26T13:24:04.913Z,37.67
2022-11-26T13:26:53.495Z,22.87
2022-11-26T13:29:35.152Z,21.03
2022-11-26T13:32:26.568Z,21.00
2022-11-26T13:34:55.714Z,20.33
2022-11-26T13:37:24.968Z,20.53
2022-11-26T13:40:06.517Z,18.97
2022-11-26T13:42:52.457Z,19.80
2022-11-26T13:45:43.244Z,19.33
2022-11-26T13:48:19.967Z,19.00
2022-11-26T13:50:58.999Z,19.77
2022-11-26T13:53:42.248Z,21.13
2022-11-26T13:56:10.863Z,21.23
2022-11-26T13:58:51.403Z,38.10
2022-11-26T14:01:36.161Z,21.70
2022-11-26T14:04:07.104Z,19.53
2022-11-26T14:06:34.440Z,25.10
2022-11-26T14:09:01.115Z,34.60
2022-11-26T14:11:39.845Z,52.47
2022-11-26T14:14:24.618Z,55.10
2022-11-26T14:17:12.782Z,24.97
2022-11-26T14:19:39.272Z,29.53
2022-11-26T14:22:33.470Z,29.23
2022-11-26T14:25:42.877Z,26.90
2022-11-26T14:28:09.168Z,27.40
2022-11-26T14:30:35.738Z,24.33
2022-11-26T14:33:11.148Z,24.17
2022-11-26T14:35:39.191Z,25.37
2022-11-26T14:38:21.584Z,24.53
2022-11-26T14:41:00.887Z,25.23
2022-11-26T14:43:28.293Z,26.20
2022-11-26T14:46:15.769Z,24.53
2022-11-26T14:48:45.703Z,28.33
2022-11-26T14:51:22.383Z,25.33
2022-11-26T14:53:50.123Z,27.93
2022-11-26T14:56:19.191Z,23.23
2022-11-26T14:58:51.028Z,26.03
2022-11-26T15:01:23.789Z,25.77
2022-11-26T15:03:54.658Z,27.07
2022-11-26T15:06:42.212Z,32.43
2022-11-26T15:09:15.756Z,32.17
2022-11-26T15:11:47.406Z,26.80
2022-11-26T15:14:25.906Z,26.73
2022-11-26T15:16:55.934Z,26.17
2022-11-26T15:19:22.773Z,20.33
2022-11-26T15:21:51.395Z,20.83
2022-11-26T15:24:17.772Z,26.40
2022-11-26T15:26:45.852Z,29.97
2022-11-26T15:29:35.901Z,27.27
2022-11-26T15:32:03.925Z,30.77
2022-11-26T15:34:32.209Z,29.13
2022-11-26T15:36:59.317Z,27.13
2022-11-26T15:39:30.636Z,26.13
2022-11-26T15:42:03.279Z,25.70
2022-11-26T15:44:31.254Z,26.23
2022-11-26T15:47:00.186Z,26.00
2022-11-26T15:49:39.592Z,25.60
2022-11-26T15:52:10.760Z,25.53
2022-11-26T15:57:32.182Z,25.40
2022-11-26T16:00:27.587Z,25.63
2022-11-26T16:02:54.342Z,27.07
2022-11-26T16:05:38.118Z,23.83
2022-11-26T16:08:22.552Z,23.87
2022-11-26T16:10:57.045Z,22.10
2022-11-26T16:13:31.860Z,24.10
2022-11-26T16:16:09.556Z,23.10
2022-11-26T16:18:53.274Z,23.10
2022-11-26T16:21:23.614Z,25.03
2022-11-26T16:24:04.841Z,22.13
2022-11-26T16:26:53.123Z,20.67
2022-11-26T16:29:19.594Z,21.67
2022-11-26T16:31:46.719Z,21.43
2022-11-26T16:34:13.119Z,22.57
2022-11-26T16:36:41.520Z,23.10
2022-11-26T16:39:10.998Z,24.30
2022-11-26T16:41:38.628Z,22.77
2022-11-26T16:44:05.129Z,23.70
2022-11-26T16:46:35.254Z,22.73
2022-11-26T16:49:03.984Z,23.67
2022-11-26T16:51:30.368Z,23.50
2022-11-26T16:53:57.053Z,22.37
2022-11-26T16:56:36.704Z,23.57
2022-11-26T16:59:18.665Z,30.73
2022-11-26T17:01:45.175Z,42.30
2022-11-26T17:04:13.153Z,24.17
2022-11-26T17:06:40.621Z,23.57
2022-11-26T17:09:16.942Z,23.43
2022-11-26T17:11:43.432Z,24.17
2022-11-26T17:14:10.945Z,24.33
2022-11-26T17:16:39.596Z,23.67
2022-11-26T17:19:13.694Z,24.70
2022-11-26T17:21:41.378Z,26.30
2022-11-26T17:24:08.151Z,23.77
2022-11-26T17:26:34.544Z,23.23
2022-11-26T17:29:01.499Z,23.13
2022-11-26T17:31:29.070Z,26.13
2022-11-26T17:33:57.190Z,23.97
2022-11-26T17:36:23.754Z,23.43
2022-11-26T17:38:50.953Z,25.23
2022-11-26T17:41:18.969Z,24.27
2022-11-26T17:43:45.648Z,25.07
2022-11-26T17:46:18.544Z,24.40
2022-11-26T17:48:46.447Z,31.17
2022-11-26T17:51:15.311Z,31.33
2022-11-26T17:53:43.277Z,29.03
2022-11-26T17:56:17.822Z,32.07
2022-11-26T17:58:46.723Z,31.67
2022-11-26T18:01:15.467Z,37.83
2022-11-26T18:03:42.973Z,33.03
2022-11-26T18:06:33.751Z,33.30
2022-11-26T18:09:00.371Z,35.53
2022-11-26T18:11:52.058Z,38.17
2022-11-26T18:14:20.873Z,32.57
2022-11-26T18:16:47.737Z,36.80
2022-11-26T18:19:18.079Z,29.77
2022-11-26T18:21:45.310Z,28.40
2022-11-26T18:24:13.184Z,28.30
2022-11-26T18:26:40.031Z,29.47
2022-11-26T18:29:07.302Z,29.60
2022-11-26T18:31:39.086Z,28.37
2022-11-26T18:34:08.209Z,28.83
2022-11-26T18:36:34.558Z,28.07
2022-11-26T18:39:03.710Z,28.93
2022-11-26T18:41:30.679Z,30.80
2022-11-26T18:43:57.438Z,30.90
2022-11-26T18:46:23.871Z,34.10
2022-11-26T18:48:50.512Z,31.50
2022-11-26T18:51:17.984Z,33.17
2022-11-26T18:53:44.767Z,32.93
2022-11-26T18:56:14.863Z,32.17
2022-11-26T18:58:45.559Z,27.53
2022-11-26T19:01:16.748Z,25.73
2022-11-26T19:03:44.470Z,28.27
2022-11-26T19:06:16.696Z,29.77
2022-11-26T19:08:44.064Z,33.50
2022-11-26T19:11:13.285Z,28.37
2022-11-26T19:13:40.243Z,30.00
2022-11-26T19:16:13.034Z,37.63
2022-11-26T19:18:44.244Z,40.43
2022-11-26T19:21:24.470Z,43.27
2022-11-26T19:23:52.758Z,32.00
2022-11-26T19:26:20.147Z,30.47
2022-11-26T19:28:47.084Z,29.60
2022-11-26T19:31:16.276Z,27.83
2022-11-26T19:33:45.847Z,27.63
2022-11-26T19:36:15.619Z,28.17
2022-11-26T19:38:45.058Z,27.43
2022-11-26T19:41:12.689Z,28.37
2022-11-26T19:43:41.691Z,26.90
2022-11-26T19:46:13.964Z,28.87
2022-11-26T19:48:42.890Z,28.67
2022-11-26T19:51:10.931Z,30.17
2022-11-26T19:53:37.913Z,32.17
2022-11-26T19:56:11.866Z,33.27
2022-11-26T19:58:38.537Z,33.40
2022-11-26T20:01:06.878Z,29.93
2022-11-26T20:03:37.507Z,32.00
2022-11-26T20:06:07.202Z,32.27
2022-11-26T20:08:36.959Z,32.23
2022-11-26T20:11:05.377Z,33.67
2022-11-26T20:13:35.449Z,35.73
2022-11-26T20:16:07.004Z,42.20
2022-11-26T20:18:37.265Z,38.57
2022-11-26T20:21:07.291Z,35.77
2022-11-26T20:23:34.007Z,32.27
2022-11-26T20:26:01.420Z,29.77
2022-11-26T20:28:28.557Z,31.57
2022-11-26T20:30:55.405Z,31.57
2022-11-26T20:33:22.382Z,30.03
2022-11-26T20:35:49.514Z,31.47
2022-11-26T20:38:17.064Z,30.67
2022-11-26T20:40:44.985Z,31.07
2022-11-26T20:43:12.403Z,37.27
2022-11-26T20:45:39.234Z,32.53
2022-11-26T20:48:06.254Z,33.03
2022-11-26T20:50:36.904Z,33.73
2022-11-26T20:53:05.056Z,33.67
2022-11-26T20:55:31.887Z,37.57
2022-11-26T20:57:59.186Z,38.23
2022-11-26T21:00:27.677Z,37.57
2022-11-26T21:02:54.653Z,36.30
2022-11-26T21:05:22.531Z,36.00
2022-11-26T21:07:51.308Z,36.13
2022-11-26T21:10:20.692Z,35.53
2022-11-26T21:12:47.448Z,33.43
2022-11-26T21:15:15.040Z,31.40
2022-11-26T21:17:41.547Z,30.67
2022-11-26T21:20:08.685Z,30.43
2022-11-26T21:22:36.898Z,32.93
2022-11-26T21:25:03.228Z,31.33
2022-11-26T21:27:32.998Z,31.47
2022-11-26T21:29:59.192Z,30.77
2022-11-26T21:32:25.726Z,32.20
2022-11-26T21:34:52.573Z,30.33
2022-11-26T21:37:20.225Z,32.57
2022-11-26T21:39:46.881Z,31.17
2022-11-26T21:42:13.728Z,33.07
2022-11-26T21:44:39.934Z,30.47
2022-11-26T21:47:07.745Z,29.83
2022-11-26T21:49:35.200Z,29.47
2022-11-26T21:52:02.452Z,27.30
2022-11-26T21:54:28.904Z,26.37
2022-11-26T21:56:55.570Z,26.33
2022-11-26T21:59:21.722Z,26.90
2022-11-26T22:01:49.067Z,25.80
2022-11-26T22:04:18.096Z,26.63
2022-11-26T22:06:47.016Z,26.60
2022-11-26T22:09:15.512Z,24.63
2022-11-26T22:11:44.282Z,25.87
2022-11-26T22:14:14.183Z,25.83
2022-11-26T22:16:41.566Z,25.90
2022-11-26T22:19:10.539Z,27.00
2022-11-26T22:21:39.624Z,25.90
2022-11-26T22:24:09.185Z,26.00
2022-11-26T22:26:35.992Z,26.27
2022-11-26T22:29:03.433Z,29.97
2022-11-26T22:31:32.942Z,29.50
2022-11-26T22:34:02.792Z,26.57
2022-11-26T22:36:29.969Z,26.27
2022-11-26T22:38:57.932Z,34.60
2022-11-26T22:41:25.216Z,31.63
2022-11-26T22:43:51.728Z,32.03
2022-11-26T22:46:20.335Z,32.97
2022-11-26T22:48:55.272Z,31.70
2022-11-26T22:51:23.598Z,29.43
2022-11-26T22:53:52.733Z,31.03
2022-11-26T22:56:20.077Z,31.53
2022-11-26T22:58:46.698Z,31.47
2022-11-26T23:01:33.608Z,30.03
2022-11-26T23:04:01.602Z,33.30
2022-11-26T23:06:29.685Z,29.57
2022-11-26T23:08:57.861Z,31.40
2022-11-26T23:11:34.385Z,29.93
2022-11-26T23:14:06.454Z,29.67
2022-11-26T23:16:34.157Z,30.33
2022-11-26T23:19:00.366Z,34.50
2022-11-26T23:21:39.369Z,29.90
2022-11-26T23:24:06.690Z,27.97
2022-11-26T23:26:35.358Z,31.23
2022-11-26T23:29:03.510Z,29.53
2022-11-26T23:31:38.393Z,29.50
2022-11-26T23:34:05.853Z,29.23
2022-11-26T23:36:33.293Z,28.70
2022-11-26T23:39:01.200Z,28.33
2022-11-26T23:41:28.534Z,28.70
2022-11-26T23:43:55.441Z,27.17
2022-11-26T23:46:24.870Z,27.50
2022-11-26T23:48:51.825Z,27.97
2022-11-26T23:51:23.989Z,27.00
2022-11-26T23:53:50.993Z,26.13
2022-11-26T23:56:21.372Z,25.30
2022-11-26T23:58:49.301Z,24.90
